Time;durP1;ratioP1;P1;durP2;ratioP2;P2;SDS_P1;SDS_P2;PMS_P1;PMS_P2;Temp;Humidity;BMP_temperature;BMP_pressure;BME280_temperature;BME280_humidity;BME280_pressure;Samples;Min_cycle;Max_cycle;Signal;HPM_P1;HPM_P2
2022/12/19 00:01:53;;;;;;;140.95;57.00;;;;;;;;;;5002627;28;20038;-82
2022/12/19 00:04:20;;;;;;;153.40;53.25;;;;;;;;;;4986986;28;20113;-82
2022/12/19 00:06:46;;;;;;;146.68;55.78;;;;;;;;;;4989642;28;20057;-82
2022/12/19 00:09:12;;;;;;;149.82;55.85;;;;;;;;;;4988129;28;20030;-82
2022/12/19 00:11:39;;;;;;;143.07;54.78;;;;;;;;;;4984397;28;20042;-82
2022/12/19 00:14:06;;;;;;;150.55;56.67;;;;;;;;;;4982099;28;20395;-82
2022/12/19 00:16:32;;;;;;;138.10;53.78;;;;;;;;;;4989322;28;20042;-82
2022/12/19 00:18:59;;;;;;;148.60;55.90;;;;;;;;;;4989025;28;20558;-82
2022/12/19 00:21:29;;;;;;;147.95;56.83;;;;;;;;;;4984070;28;20497;-81
2022/12/19 00:23:56;;;;;;;152.98;54.70;;;;;;;;;;5002278;28;20067;-82
2022/12/19 00:26:22;;;;;;;145.02;56.40;;;;;;;;;;4988528;28;20668;-82
2022/12/19 00:28:49;;;;;;;150.40;56.83;;;;;;;;;;4986426;28;20023;-82
2022/12/19 00:31:16;;;;;;;152.48;56.80;;;;;;;;;;4970941;28;20129;-82
2022/12/19 00:33:42;;;;;;;149.07;55.60;;;;;;;;;;4987122;28;20030;-82
2022/12/19 00:36:13;;;;;;;145.95;56.10;;;;;;;;;;4989724;28;20058;-82
2022/12/19 00:38:43;;;;;;;151.25;57.47;;;;;;;;;;4986167;28;20409;-82
2022/12/19 00:41:16;;;;;;;151.45;56.50;;;;;;;;;;4984567;28;20031;-81
2022/12/19 00:43:43;;;;;;;146.48;55.22;;;;;;;;;;4982712;28;20045;-81
2022/12/19 00:46:10;;;;;;;145.20;55.80;;;;;;;;;;4989167;28;20392;-82
2022/12/19 00:48:36;;;;;;;145.90;55.15;;;;;;;;;;4977627;28;20467;-82
2022/12/19 00:51:03;;;;;;;146.57;55.58;;;;;;;;;;4984142;28;20037;-84
2022/12/19 00:53:29;;;;;;;145.32;57.55;;;;;;;;;;4988808;28;20688;-81
2022/12/19 00:55:57;;;;;;;152.23;57.17;;;;;;;;;;4984058;28;20346;-82
2022/12/19 00:58:23;;;;;;;158.55;58.42;;;;;;;;;;4987972;28;20154;-82
2022/12/19 01:00:49;;;;;;;151.13;57.85;;;;;;;;;;4983572;28;20069;-82
2022/12/19 01:03:15;;;;;;;151.70;57.50;;;;;;;;;;4995301;28;20035;-82
2022/12/19 01:05:41;;;;;;;154.88;58.70;;;;;;;;;;4988851;28;20403;-81
2022/12/19 01:08:07;;;;;;;161.07;59.83;;;;;;;;;;4965421;28;20065;-82
2022/12/19 01:10:33;;;;;;;159.25;58.90;;;;;;;;;;4988102;28;20038;-82
2022/12/19 01:13:00;;;;;;;159.98;60.13;;;;;;;;;;4985500;28;20034;-84
2022/12/19 01:15:26;;;;;;;173.20;62.58;;;;;;;;;;4990367;28;20154;-81
2022/12/19 01:17:52;;;;;;;166.85;60.40;;;;;;;;;;4989141;28;20034;-82
2022/12/19 01:20:20;;;;;;;169.65;60.63;;;;;;;;;;5002657;28;20042;-82
2022/12/19 01:22:46;;;;;;;174.18;60.15;;;;;;;;;;4991484;28;20030;-81
2022/12/19 01:25:13;;;;;;;186.32;62.80;;;;;;;;;;4990096;28;20451;-81
2022/12/19 01:27:39;;;;;;;187.88;64.25;;;;;;;;;;4999492;28;20109;-82
2022/12/19 01:30:06;;;;;;;175.98;62.85;;;;;;;;;;4996457;28;20046;-82
2022/12/19 01:32:35;;;;;;;187.57;64.03;;;;;;;;;;4985323;28;20092;-82
2022/12/19 01:35:02;;;;;;;196.68;63.83;;;;;;;;;;5007743;28;20054;-84
2022/12/19 01:37:28;;;;;;;194.88;64.03;;;;;;;;;;4991701;28;20480;-82
2022/12/19 01:39:56;;;;;;;201.57;63.30;;;;;;;;;;4984451;28;20085;-82
2022/12/19 01:42:23;;;;;;;200.48;65.00;;;;;;;;;;4995049;28;20046;-82
2022/12/19 01:45:03;;;;;;;183.68;64.28;;;;;;;;;;4963325;28;20496;-81
2022/12/19 01:47:29;;;;;;;186.32;64.22;;;;;;;;;;4976577;28;20035;-82
2022/12/19 01:49:56;;;;;;;205.25;67.90;;;;;;;;;;5005445;28;20038;-81
2022/12/19 01:52:22;;;;;;;197.15;64.50;;;;;;;;;;4971132;28;20038;-82
2022/12/19 01:54:48;;;;;;;188.82;66.70;;;;;;;;;;4969626;28;20448;-81
2022/12/19 01:57:17;;;;;;;199.43;65.13;;;;;;;;;;5006710;28;20158;-82
2022/12/19 01:59:45;;;;;;;208.68;64.22;;;;;;;;;;4982938;28;20022;-81
2022/12/19 02:02:18;;;;;;;204.55;64.13;;;;;;;;;;4990514;28;20034;-81
2022/12/19 02:04:45;;;;;;;211.23;67.57;;;;;;;;;;4999827;28;20100;-82
2022/12/19 02:07:11;;;;;;;201.45;65.07;;;;;;;;;;4990611;28;20042;-81
2022/12/19 02:09:38;;;;;;;198.25;61.35;;;;;;;;;;5006844;28;20030;-81
2022/12/19 02:12:04;;;;;;;199.02;63.67;;;;;;;;;;4986382;28;20034;-82
2022/12/19 02:14:33;;;;;;;184.43;59.42;;;;;;;;;;4989456;28;20034;-81
2022/12/19 02:17:06;;;;;;;196.13;61.00;;;;;;;;;;4990840;28;20521;-88
2022/12/19 02:19:33;;;;;;;175.13;58.50;;;;;;;;;;4989604;28;20109;-81
2022/12/19 02:22:02;;;;;;;176.73;57.03;;;;;;;;;;4984861;28;20054;-82
2022/12/19 02:24:53;;;;;;;184.32;61.50;;;;;;;;;;4973640;28;20031;-80
2022/12/19 02:27:22;;;;;;;170.25;56.42;;;;;;;;;;4943774;28;20038;-80
2022/12/19 02:30:03;;;;;;;159.52;53.97;;;;;;;;;;4984955;28;20057;-81
2022/12/19 02:32:31;;;;;;;174.32;55.60;;;;;;;;;;4980397;28;20380;-81
2022/12/19 02:35:00;;;;;;;160.45;55.42;;;;;;;;;;4985537;28;20049;-81
2022/12/19 02:37:32;;;;;;;150.63;53.50;;;;;;;;;;4971463;28;20061;-81
2022/12/19 02:40:16;;;;;;;151.70;53.50;;;;;;;;;;4981288;28;20046;-79
2022/12/19 02:42:44;;;;;;;147.38;52.67;;;;;;;;;;5002743;28;20027;-81
2022/12/19 02:45:12;;;;;;;143.48;51.58;;;;;;;;;;5001500;28;20506;-81
2022/12/19 02:47:39;;;;;;;143.25;49.15;;;;;;;;;;4987544;28;20041;-81
2022/12/19 02:50:06;;;;;;;142.85;50.67;;;;;;;;;;4998725;28;20030;-81
2022/12/19 02:52:32;;;;;;;138.25;49.95;;;;;;;;;;4985963;28;20423;-81
2022/12/19 02:55:04;;;;;;;142.98;50.45;;;;;;;;;;4972724;28;20392;-87
2022/12/19 02:57:30;;;;;;;;;;;;;;;;;;5006786;28;20037;-81
2022/12/19 03:00:12;;;;;;;140.07;49.47;;;;;;;;;;4977913;28;19914;-81
2022/12/19 03:02:41;;;;;;;136.27;47.80;;;;;;;;;;4987658;28;20034;-81
2022/12/19 03:05:10;;;;;;;136.52;48.38;;;;;;;;;;4985921;28;20030;-80
2022/12/19 03:07:39;;;;;;;132.27;48.42;;;;;;;;;;4972430;28;20072;-81
2022/12/19 03:10:25;;;;;;;141.40;49.40;;;;;;;;;;4988895;28;20447;-81
2022/12/19 03:13:08;;;;;;;130.15;47.83;;;;;;;;;;4967180;28;20401;-81
2022/12/19 03:15:34;;;;;;;123.68;46.38;;;;;;;;;;4988718;28;20061;-81
2022/12/19 03:18:01;;;;;;;118.25;46.72;;;;;;;;;;4954082;28;20411;-84
2022/12/19 03:20:45;;;;;;;139.00;48.30;;;;;;;;;;4996288;28;20089;-81
2022/12/19 03:23:12;;;;;;;122.85;45.63;;;;;;;;;;4988588;28;20057;-80
2022/12/19 03:25:40;;;;;;;122.57;46.40;;;;;;;;;;4986661;28;20033;-80
2022/12/19 03:28:10;;;;;;;126.60;46.78;;;;;;;;;;4985594;28;20445;-81
2022/12/19 03:30:37;;;;;;;121.57;47.42;;;;;;;;;;4979228;28;20035;-81
2022/12/19 03:33:03;;;;;;;120.30;46.33;;;;;;;;;;4966038;28;20050;-80
2022/12/19 03:35:31;;;;;;;113.70;46.97;;;;;;;;;;4990138;28;20543;-81
2022/12/19 03:38:01;;;;;;;116.55;45.88;;;;;;;;;;4974730;28;20018;-81
2022/12/19 03:40:28;;;;;;;115.20;44.22;;;;;;;;;;4986466;28;20022;-81
2022/12/19 03:43:09;;;;;;;119.90;43.25;;;;;;;;;;4979812;28;20712;-80
2022/12/19 03:45:35;;;;;;;;;;;;;;;;;;4984645;28;20085;-81
2022/12/19 03:48:10;;;;;;;103.03;40.78;;;;;;;;;;4999372;28;20329;-81
2022/12/19 03:50:46;;;;;;;100.80;41.08;;;;;;;;;;4984757;28;20093;-81
2022/12/19 03:53:24;;;;;;;102.07;39.40;;;;;;;;;;4971294;28;20523;-81
2022/12/19 03:55:55;;;;;;;104.15;39.47;;;;;;;;;;4988309;28;20077;-81
2022/12/19 03:58:27;;;;;;;92.68;38.13;;;;;;;;;;4982372;28;20023;-81
2022/12/19 04:00:53;;;;;;;81.95;35.53;;;;;;;;;;4999029;28;20541;-81
2022/12/19 04:03:20;;;;;;;86.72;36.33;;;;;;;;;;4974379;28;20491;-81
2022/12/19 04:05:48;;;;;;;84.82;37.08;;;;;;;;;;5004630;28;20034;-81
2022/12/19 04:08:14;;;;;;;83.20;37.53;;;;;;;;;;4970755;28;20030;-81
2022/12/19 04:10:46;;;;;;;88.47;37.75;;;;;;;;;;4984616;28;20039;-81
2022/12/19 04:13:14;;;;;;;77.63;34.97;;;;;;;;;;4959395;28;20274;-81
2022/12/19 04:16:04;;;;;;;79.55;34.20;;;;;;;;;;4987691;28;20133;-81
2022/12/19 04:18:31;;;;;;;81.60;35.75;;;;;;;;;;4965992;28;20039;-81
2022/12/19 04:21:16;;;;;;;82.80;36.38;;;;;;;;;;4972115;28;20034;-81
2022/12/19 04:23:47;;;;;;;83.60;34.85;;;;;;;;;;4988615;28;20058;-81
2022/12/19 04:26:14;;;;;;;80.50;35.97;;;;;;;;;;4987873;28;20125;-80
2022/12/19 04:28:43;;;;;;;72.28;33.30;;;;;;;;;;4987028;28;20048;-81
2022/12/19 04:31:11;;;;;;;74.10;34.55;;;;;;;;;;4987001;28;20045;-81
2022/12/19 04:33:37;;;;;;;73.60;33.30;;;;;;;;;;4980059;28;20106;-81
2022/12/19 04:36:04;;;;;;;74.55;33.00;;;;;;;;;;5002092;28;20018;-80
2022/12/19 04:38:30;;;;;;;69.03;34.50;;;;;;;;;;5002667;28;20042;-81
2022/12/19 04:40:56;;;;;;;63.72;32.97;;;;;;;;;;4999358;28;20050;-80
2022/12/19 04:43:22;;;;;;;66.32;32.95;;;;;;;;;;4987882;28;20207;-80
2022/12/19 04:45:48;;;;;;;69.85;34.05;;;;;;;;;;4981725;28;20038;-80
2022/12/19 04:48:14;;;;;;;69.25;32.67;;;;;;;;;;4986370;28;20530;-80
2022/12/19 04:50:40;;;;;;;68.45;33.13;;;;;;;;;;4993261;28;20038;-81
2022/12/19 04:53:06;;;;;;;63.63;32.15;;;;;;;;;;4991410;28;20376;-81
2022/12/19 04:55:32;;;;;;;73.38;35.72;;;;;;;;;;5008605;28;20034;-82
2022/12/19 04:57:58;;;;;;;67.88;34.35;;;;;;;;;;5007419;28;20035;-82
2022/12/19 05:00:27;;;;;;;72.82;33.60;;;;;;;;;;5005091;28;20563;-81
2022/12/19 05:02:53;;;;;;;73.22;33.88;;;;;;;;;;4978273;28;20408;-81
2022/12/19 05:05:19;;;;;;;61.78;31.48;;;;;;;;;;4993116;28;20034;-84
2022/12/19 05:07:45;;;;;;;56.75;30.05;;;;;;;;;;5008464;28;20535;-81
2022/12/19 05:10:12;;;;;;;59.05;29.05;;;;;;;;;;4989507;28;20030;-80
2022/12/19 05:12:38;;;;;;;54.45;30.23;;;;;;;;;;4991358;28;20093;-81
2022/12/19 05:15:05;;;;;;;52.83;28.65;;;;;;;;;;5005899;28;20109;-80
2022/12/19 05:17:31;;;;;;;53.67;29.23;;;;;;;;;;5005211;28;20022;-81
2022/12/19 05:19:57;;;;;;;49.58;28.63;;;;;;;;;;4990899;28;20411;-87
2022/12/19 05:22:27;;;;;;;49.15;28.17;;;;;;;;;;4992719;28;20034;-81
2022/12/19 05:24:53;;;;;;;48.92;28.00;;;;;;;;;;4994457;28;20038;-81
2022/12/19 05:27:19;;;;;;;48.90;28.92;;;;;;;;;;5005282;28;20488;-81
2022/12/19 05:29:45;;;;;;;48.80;27.88;;;;;;;;;;4983376;28;20050;-81
2022/12/19 05:32:11;;;;;;;47.83;27.17;;;;;;;;;;4956246;28;20047;-81
2022/12/19 05:34:37;;;;;;;48.38;27.65;;;;;;;;;;4990114;28;20480;-79
2022/12/19 05:37:03;;;;;;;47.35;27.67;;;;;;;;;;4990376;28;20073;-79
2022/12/19 05:39:30;;;;;;;48.38;27.42;;;;;;;;;;4990306;28;20030;-81
2022/12/19 05:41:56;;;;;;;49.15;27.20;;;;;;;;;;4991392;28;20030;-81
2022/12/19 05:44:22;;;;;;;50.15;27.85;;;;;;;;;;4974958;28;20037;-82
2022/12/19 05:46:48;;;;;;;45.90;27.75;;;;;;;;;;4973091;28;20460;-81
2022/12/19 05:49:14;;;;;;;50.35;28.65;;;;;;;;;;5001226;28;20045;-80
2022/12/19 05:51:40;;;;;;;49.25;27.88;;;;;;;;;;4989755;28;20073;-81
2022/12/19 05:54:06;;;;;;;49.25;28.92;;;;;;;;;;4991149;28;20030;-81
2022/12/19 05:56:33;;;;;;;48.35;28.80;;;;;;;;;;5005434;28;20042;-81
2022/12/19 05:58:59;;;;;;;53.03;29.67;;;;;;;;;;4990689;28;20026;-80
2022/12/19 06:01:26;;;;;;;49.67;29.33;;;;;;;;;;5002197;28;20058;-81
2022/12/19 06:03:53;;;;;;;50.75;31.40;;;;;;;;;;4999611;28;20426;-81
2022/12/19 06:06:24;;;;;;;51.35;29.73;;;;;;;;;;4987354;28;20027;-81
2022/12/19 06:08:55;;;;;;;49.33;29.27;;;;;;;;;;4982917;28;20034;-80
2022/12/19 06:11:21;;;;;;;54.40;31.73;;;;;;;;;;4991382;28;20023;-80
2022/12/19 06:13:47;;;;;;;46.35;29.27;;;;;;;;;;4973244;28;20457;-80
2022/12/19 06:16:14;;;;;;;48.90;29.67;;;;;;;;;;4988881;28;20030;-80
2022/12/19 06:18:41;;;;;;;50.63;28.70;;;;;;;;;;4986598;28;20623;-79
2022/12/19 06:21:08;;;;;;;52.00;30.08;;;;;;;;;;4985728;28;20029;-80
2022/12/19 06:23:35;;;;;;;48.78;29.80;;;;;;;;;;4989678;28;20811;-81
2022/12/19 06:26:02;;;;;;;48.97;30.25;;;;;;;;;;4981524;28;20133;-81
2022/12/19 06:28:29;;;;;;;49.80;31.75;;;;;;;;;;4964283;28;20447;-80
2022/12/19 06:30:56;;;;;;;48.63;30.25;;;;;;;;;;5003359;28;20399;-80
2022/12/19 06:33:22;;;;;;;54.20;30.88;;;;;;;;;;4985155;28;20058;-80
2022/12/19 06:35:48;;;;;;;50.22;29.85;;;;;;;;;;4972711;28;20057;-80
2022/12/19 06:38:14;;;;;;;48.58;30.38;;;;;;;;;;5002184;28;20395;-81
2022/12/19 06:43:29;;;;;;;57.53;30.88;;;;;;;;;;4986589;28;20026;-80
2022/12/19 06:45:57;;;;;;;49.00;30.75;;;;;;;;;;4988013;28;20030;-80
2022/12/19 06:48:23;;;;;;;48.22;29.48;;;;;;;;;;4989683;28;20778;-80
2022/12/19 06:50:49;;;;;;;48.00;29.95;;;;;;;;;;5004073;28;20040;-80
2022/12/19 06:53:15;;;;;;;48.67;29.88;;;;;;;;;;4986209;28;20034;-80
2022/12/19 06:55:41;;;;;;;54.25;32.10;;;;;;;;;;4989971;28;20503;-80
2022/12/19 06:58:07;;;;;;;52.47;31.58;;;;;;;;;;4988562;28;20476;-81
2022/12/19 07:00:35;;;;;;;55.58;30.75;;;;;;;;;;4985684;28;20409;-81
2022/12/19 07:03:02;;;;;;;57.17;34.17;;;;;;;;;;4988611;28;20438;-81
2022/12/19 07:05:28;;;;;;;51.97;32.58;;;;;;;;;;4985354;28;20408;-81
2022/12/19 07:07:54;;;;;;;57.35;35.05;;;;;;;;;;4986241;28;20042;-81
2022/12/19 07:10:20;;;;;;;53.63;33.17;;;;;;;;;;4991686;28;20845;-81
2022/12/19 07:12:46;;;;;;;49.10;32.88;;;;;;;;;;4983015;28;20054;-81
2022/12/19 07:15:13;;;;;;;56.35;33.05;;;;;;;;;;4960601;28;20026;-80
2022/12/19 07:17:39;;;;;;;47.83;31.85;;;;;;;;;;4983569;28;20049;-80
2022/12/19 07:20:05;;;;;;;49.45;30.05;;;;;;;;;;4986364;28;20030;-81
2022/12/19 07:22:33;;;;;;;51.80;31.25;;;;;;;;;;4987062;28;20108;-80
2022/12/19 07:25:01;;;;;;;48.22;30.23;;;;;;;;;;4970864;28;20559;-80
2022/12/19 07:27:27;;;;;;;58.75;29.05;;;;;;;;;;4968197;28;20030;-80
2022/12/19 07:29:54;;;;;;;50.63;27.23;;;;;;;;;;4970516;28;20023;-80
2022/12/19 07:32:20;;;;;;;44.35;28.05;;;;;;;;;;4986140;28;20134;-80
2022/12/19 07:34:46;;;;;;;41.72;26.38;;;;;;;;;;4986293;28;20499;-80
2022/12/19 07:37:12;;;;;;;42.20;26.35;;;;;;;;;;4988745;28;20109;-81
2022/12/19 07:39:38;;;;;;;44.53;26.02;;;;;;;;;;4989078;28;20030;-80
2022/12/19 07:42:04;;;;;;;42.00;24.23;;;;;;;;;;4989518;28;20360;-80
2022/12/19 07:44:37;;;;;;;41.85;25.00;;;;;;;;;;4990727;28;20058;-81
2022/12/19 07:47:03;;;;;;;37.30;24.00;;;;;;;;;;4989422;28;20128;-79
2022/12/19 07:49:29;;;;;;;39.20;23.70;;;;;;;;;;4989710;28;20484;-81
2022/12/19 07:51:56;;;;;;;37.58;23.50;;;;;;;;;;4988312;28;20038;-82
2022/12/19 07:54:22;;;;;;;36.30;23.23;;;;;;;;;;4989348;28;20227;-81
2022/12/19 07:56:48;;;;;;;38.33;22.48;;;;;;;;;;4989210;28;20602;-81
2022/12/19 07:59:14;;;;;;;37.50;22.17;;;;;;;;;;4989537;28;20438;-81
2022/12/19 08:01:40;;;;;;;34.42;21.90;;;;;;;;;;4989682;28;20129;-81
2022/12/19 08:04:06;;;;;;;31.65;19.98;;;;;;;;;;4988530;28;20117;-81
2022/12/19 08:06:32;;;;;;;32.30;20.92;;;;;;;;;;4989682;28;20105;-81
2022/12/19 08:08:59;;;;;;;33.50;21.23;;;;;;;;;;4989330;28;20070;-81
2022/12/19 08:11:26;;;;;;;31.98;20.05;;;;;;;;;;4988831;28;20073;-81
2022/12/19 08:13:58;;;;;;;31.08;20.52;;;;;;;;;;4988489;28;20039;-81
2022/12/19 08:16:26;;;;;;;36.85;18.98;;;;;;;;;;4988850;28;20061;-81
2022/12/19 08:18:52;;;;;;;29.63;18.20;;;;;;;;;;4990759;28;20407;-81
2022/12/19 08:21:18;;;;;;;31.67;20.23;;;;;;;;;;4973007;28;20035;-81
2022/12/19 08:23:45;;;;;;;33.90;20.38;;;;;;;;;;4989478;28;20081;-81
2022/12/19 08:26:15;;;;;;;32.95;18.90;;;;;;;;;;4992671;28;20399;-81
2022/12/19 08:28:42;;;;;;;32.80;20.05;;;;;;;;;;4994097;28;20022;-80
2022/12/19 08:31:13;;;;;;;32.42;19.85;;;;;;;;;;4992862;28;20022;-81
2022/12/19 08:33:39;;;;;;;31.73;20.00;;;;;;;;;;4993728;28;20050;-80
2022/12/19 08:36:13;;;;;;;34.83;21.13;;;;;;;;;;5008927;28;20515;-82
2022/12/19 08:38:39;;;;;;;35.45;21.50;;;;;;;;;;4992998;28;20462;-81
2022/12/19 08:41:06;;;;;;;30.33;20.70;;;;;;;;;;4992356;28;20034;-82
2022/12/19 08:43:32;;;;;;;37.67;22.60;;;;;;;;;;4993724;28;20392;-81
2022/12/19 08:45:58;;;;;;;33.00;21.63;;;;;;;;;;4992855;28;20057;-81
2022/12/19 08:48:25;;;;;;;33.63;21.38;;;;;;;;;;4993817;28;20034;-82
2022/12/19 08:50:51;;;;;;;34.92;20.92;;;;;;;;;;4992747;28;20519;-82
2022/12/19 08:53:17;;;;;;;33.15;21.48;;;;;;;;;;4991684;28;20038;-82
2022/12/19 08:55:43;;;;;;;32.88;20.65;;;;;;;;;;4993507;28;20463;-82
2022/12/19 08:58:09;;;;;;;30.52;20.33;;;;;;;;;;4992549;28;20044;-82
2022/12/19 09:00:36;;;;;;;33.60;21.73;;;;;;;;;;4992128;28;20500;-81
2022/12/19 09:03:02;;;;;;;40.45;21.33;;;;;;;;;;4992183;28;20054;-82
2022/12/19 09:05:28;;;;;;;37.15;21.65;;;;;;;;;;4976257;28;20039;-81
2022/12/19 09:07:54;;;;;;;38.58;21.63;;;;;;;;;;5008527;28;20395;-81
2022/12/19 09:10:20;;;;;;;32.30;20.00;;;;;;;;;;4991939;28;20497;-80
2022/12/19 09:12:46;;;;;;;30.77;19.75;;;;;;;;;;4992133;28;20046;-81
2022/12/19 09:15:12;;;;;;;34.13;20.23;;;;;;;;;;4999235;28;20607;-81
2022/12/19 09:17:39;;;;;;;32.60;19.88;;;;;;;;;;4974139;28;20066;-80
2022/12/19 09:20:05;;;;;;;28.05;18.45;;;;;;;;;;4988981;28;20031;-80
2022/12/19 09:22:31;;;;;;;30.70;18.75;;;;;;;;;;5005188;28;20037;-81
2022/12/19 09:24:57;;;;;;;32.97;18.33;;;;;;;;;;5013277;28;20096;-81
2022/12/19 09:27:24;;;;;;;29.92;18.83;;;;;;;;;;5011299;28;20062;-80
2022/12/19 09:29:50;;;;;;;26.77;16.23;;;;;;;;;;4978442;28;20395;-80
2022/12/19 09:32:16;;;;;;;24.50;16.85;;;;;;;;;;5008372;28;20476;-80
2022/12/19 09:34:42;;;;;;;25.23;16.38;;;;;;;;;;5007563;28;20459;-80
2022/12/19 09:37:09;;;;;;;24.02;15.35;;;;;;;;;;4990781;28;20496;-80
2022/12/19 09:39:35;;;;;;;24.75;16.25;;;;;;;;;;4992351;28;20031;-81
2022/12/19 09:42:17;;;;;;;27.38;15.45;;;;;;;;;;5008450;28;20403;-81
2022/12/19 09:44:54;;;;;;;24.95;15.85;;;;;;;;;;4986832;28;20035;-81
2022/12/19 09:47:26;;;;;;;24.13;15.18;;;;;;;;;;4988292;28;20035;-81
2022/12/19 09:49:53;;;;;;;23.73;14.48;;;;;;;;;;4988627;28;20404;-81
2022/12/19 09:52:28;;;;;;;22.10;14.75;;;;;;;;;;4998237;28;20093;-81
2022/12/19 09:55:01;;;;;;;24.10;15.93;;;;;;;;;;4992456;28;20037;-80
2022/12/19 09:57:46;;;;;;;25.35;15.40;;;;;;;;;;4992456;28;20026;-81
2022/12/19 10:00:20;;;;;;;27.58;17.77;;;;;;;;;;4992102;28;20123;-81
2022/12/19 10:02:49;;;;;;;24.95;16.13;;;;;;;;;;4992599;28;20462;-80
2022/12/19 10:05:22;;;;;;;25.35;16.88;;;;;;;;;;4990962;28;20069;-80
2022/12/19 10:07:48;;;;;;;23.70;15.57;;;;;;;;;;4990852;28;20049;-80
2022/12/19 10:10:21;;;;;;;26.60;16.95;;;;;;;;;;4990807;28;20065;-80
2022/12/19 10:12:51;;;;;;;26.38;16.17;;;;;;;;;;4991266;28;20141;-81
2022/12/19 10:15:35;;;;;;;24.25;16.40;;;;;;;;;;4992528;28;20027;-81
2022/12/19 10:18:04;;;;;;;28.63;16.05;;;;;;;;;;4990126;28;20065;-83
2022/12/19 10:20:34;;;;;;;26.67;15.70;;;;;;;;;;4971613;28;20031;-81
2022/12/19 10:23:19;;;;;;;22.52;15.25;;;;;;;;;;4972048;28;20480;-82
2022/12/19 10:25:46;;;;;;;28.77;14.95;;;;;;;;;;4971692;28;20496;-80
2022/12/19 10:28:15;;;;;;;25.85;15.10;;;;;;;;;;4971329;28;20037;-81
2022/12/19 10:30:44;;;;;;;20.40;14.43;;;;;;;;;;4971783;28;20026;-80
2022/12/19 10:33:13;;;;;;;21.08;14.15;;;;;;;;;;4972280;28;20118;-80
2022/12/19 10:35:44;;;;;;;22.27;13.73;;;;;;;;;;4991251;28;20027;-80
2022/12/19 10:38:10;;;;;;;20.77;14.32;;;;;;;;;;4990977;28;20466;-80
2022/12/19 10:40:49;;;;;;;19.20;12.88;;;;;;;;;;4992109;28;20023;-80
2022/12/19 10:43:23;;;;;;;29.48;13.55;;;;;;;;;;4989660;28;20041;-81
2022/12/19 10:45:52;;;;;;;22.58;14.02;;;;;;;;;;4991694;28;20108;-81
2022/12/19 10:48:20;;;;;;;19.83;13.00;;;;;;;;;;4991066;28;20058;-80
2022/12/19 10:50:47;;;;;;;19.08;13.38;;;;;;;;;;4990594;28;20034;-81
2022/12/19 10:53:15;;;;;;;23.40;13.73;;;;;;;;;;4991639;28;20022;-81
2022/12/19 10:55:44;;;;;;;22.67;13.02;;;;;;;;;;4991796;28;20053;-81
2022/12/19 10:58:12;;;;;;;21.48;12.75;;;;;;;;;;4989201;28;20030;-82
2022/12/19 11:00:45;;;;;;;19.30;13.25;;;;;;;;;;4991680;28;20018;-81
2022/12/19 11:03:13;;;;;;;19.50;12.80;;;;;;;;;;4990328;28;20044;-81
2022/12/19 11:05:39;;;;;;;23.38;12.77;;;;;;;;;;4991673;28;20030;-80
2022/12/19 11:08:05;;;;;;;22.25;12.98;;;;;;;;;;4990128;28;20081;-81
2022/12/19 11:10:38;;;;;;;16.73;12.70;;;;;;;;;;4985210;28;20066;-82
2022/12/19 11:13:23;;;;;;;21.80;13.73;;;;;;;;;;4987348;28;20093;-81
2022/12/19 11:15:51;;;;;;;21.80;12.90;;;;;;;;;;4972273;28;20041;-81
2022/12/19 11:18:17;;;;;;;19.20;12.90;;;;;;;;;;4987083;28;20396;-82
2022/12/19 11:21:12;;;;;;;19.60;13.18;;;;;;;;;;4971936;28;20141;-81
2022/12/19 11:23:49;;;;;;;20.52;12.73;;;;;;;;;;4986592;28;20035;-81
2022/12/19 11:26:28;;;;;;;20.90;13.20;;;;;;;;;;4984686;28;20037;-80
2022/12/19 11:29:03;;;;;;;27.83;12.73;;;;;;;;;;4970318;28;20034;-81
2022/12/19 11:31:29;;;;;;;20.42;13.73;;;;;;;;;;4954280;28;20089;-81
2022/12/19 11:34:02;;;;;;;22.13;13.63;;;;;;;;;;4971696;28;20026;-82
2022/12/19 11:36:32;;;;;;;18.70;13.00;;;;;;;;;;4970425;28;20080;-81
2022/12/19 11:38:58;;;;;;;19.33;14.00;;;;;;;;;;4986339;28;20031;-80
2022/12/19 11:41:28;;;;;;;20.45;14.13;;;;;;;;;;4989715;28;20113;-81
2022/12/19 11:44:06;;;;;;;22.52;14.57;;;;;;;;;;4971662;28;20058;-80
2022/12/19 11:46:41;;;;;;;20.08;14.13;;;;;;;;;;5002695;28;20038;-81
2022/12/19 11:49:17;;;;;;;18.90;13.85;;;;;;;;;;4971577;28;20033;-90
2022/12/19 11:51:49;;;;;;;21.00;13.50;;;;;;;;;;4971891;28;20408;-81
2022/12/19 11:54:24;;;;;;;19.70;13.88;;;;;;;;;;4970236;28;20026;-80
2022/12/19 11:56:50;;;;;;;23.70;14.20;;;;;;;;;;4969829;28;20022;-80
2022/12/19 11:59:27;;;;;;;21.25;13.27;;;;;;;;;;4980412;28;20049;-81
2022/12/19 12:01:56;;;;;;;18.40;13.77;;;;;;;;;;4988593;28;20133;-81
2022/12/19 12:04:32;;;;;;;22.40;14.18;;;;;;;;;;4988744;28;20038;-80
2022/12/19 12:06:58;;;;;;;17.33;12.57;;;;;;;;;;4988255;28;20480;-81
2022/12/19 12:09:37;;;;;;;19.77;13.68;;;;;;;;;;4990163;28;20476;-81
2022/12/19 12:12:15;;;;;;;19.60;12.52;;;;;;;;;;4990537;28;20034;-82
2022/12/19 12:14:55;;;;;;;16.30;11.07;;;;;;;;;;4988734;28;20507;-81
2022/12/19 12:17:30;;;;;;;20.42;11.10;;;;;;;;;;4989139;28;20031;-82
2022/12/19 12:19:59;;;;;;;13.70;10.30;;;;;;;;;;4990776;28;20164;-80
2022/12/19 12:22:35;;;;;;;16.75;10.65;;;;;;;;;;4989712;28;20030;-80
2022/12/19 12:25:14;;;;;;;19.67;10.50;;;;;;;;;;4990922;28;20026;-80
2022/12/19 12:28:03;;;;;;;15.48;10.18;;;;;;;;;;4990168;28;20034;-82
2022/12/19 12:30:32;;;;;;;18.08;10.90;;;;;;;;;;4984020;28;20039;-80
2022/12/19 12:33:11;;;;;;;15.73;9.52;;;;;;;;;;4990376;28;20026;-80
2022/12/19 12:35:46;;;;;;;11.90;9.50;;;;;;;;;;4976291;28;20038;-81
2022/12/19 12:38:29;;;;;;;14.55;9.90;;;;;;;;;;4985618;28;20031;-82
2022/12/19 12:41:05;;;;;;;14.27;9.50;;;;;;;;;;4985824;28;20109;-81
2022/12/19 12:43:46;;;;;;;12.60;9.20;;;;;;;;;;4988630;28;20034;-80
2022/12/19 12:46:19;;;;;;;12.90;9.48;;;;;;;;;;4988466;28;20038;-81
2022/12/19 12:48:45;;;;;;;12.90;8.73;;;;;;;;;;4988918;28;20451;-81
2022/12/19 12:51:11;;;;;;;16.05;9.07;;;;;;;;;;4988243;28;20429;-81
2022/12/19 12:53:40;;;;;;;13.02;8.40;;;;;;;;;;5005371;28;20038;-81
2022/12/19 12:56:07;;;;;;;18.05;8.68;;;;;;;;;;4990107;28;20049;-84
2022/12/19 12:58:42;;;;;;;15.48;8.48;;;;;;;;;;4988440;28;20034;-80
2022/12/19 13:01:10;;;;;;;12.63;8.75;;;;;;;;;;4987917;28;20391;-80
2022/12/19 13:03:36;;;;;;;13.73;8.02;;;;;;;;;;4987759;28;20041;-79
2022/12/19 13:06:07;;;;;;;13.43;7.95;;;;;;;;;;4989844;28;20046;-80
2022/12/19 13:08:38;;;;;;;12.23;8.15;;;;;;;;;;4988500;28;20499;-80
2022/12/19 13:11:06;;;;;;;12.52;7.53;;;;;;;;;;4991182;28;20042;-80
2022/12/19 13:13:49;;;;;;;15.02;8.55;;;;;;;;;;4992140;28;20030;-80
2022/12/19 13:16:34;;;;;;;12.15;7.82;;;;;;;;;;4991515;28;20109;-79
2022/12/19 13:19:13;;;;;;;13.18;7.53;;;;;;;;;;4992018;28;20033;-81
2022/12/19 13:22:02;;;;;;;12.15;7.55;;;;;;;;;;4993289;28;20121;-81
2022/12/19 13:24:49;;;;;;;13.70;8.13;;;;;;;;;;4984020;28;20061;-80
2022/12/19 13:27:18;;;;;;;12.25;7.47;;;;;;;;;;4986849;28;20072;-80
2022/12/19 13:29:59;;;;;;;14.40;8.60;;;;;;;;;;4992223;28;20046;-80
2022/12/19 13:32:27;;;;;;;10.88;7.90;;;;;;;;;;4989592;28;20037;-80
2022/12/19 13:34:54;;;;;;;13.50;7.05;;;;;;;;;;4989209;28;20030;-80
2022/12/19 13:37:26;;;;;;;9.98;7.30;;;;;;;;;;4987190;28;20019;-79
2022/12/19 13:39:52;;;;;;;10.63;7.38;;;;;;;;;;4988253;28;20050;-80
2022/12/19 13:45:11;;;;;;;11.02;7.13;;;;;;;;;;5001810;28;20104;-79
2022/12/19 13:47:39;;;;;;;12.90;7.35;;;;;;;;;;4985777;28;20042;-82
2022/12/19 13:50:07;;;;;;;11.13;6.95;;;;;;;;;;4994462;28;20027;-82
2022/12/19 13:52:33;;;;;;;11.10;7.25;;;;;;;;;;4988199;28;20236;-81
2022/12/19 13:54:59;;;;;;;11.30;6.82;;;;;;;;;;4990397;28;20091;-81
2022/12/19 13:57:29;;;;;;;10.93;6.63;;;;;;;;;;4989452;28;20072;-81
2022/12/19 14:00:01;;;;;;;11.15;6.85;;;;;;;;;;5000854;28;20457;-80
2022/12/19 14:02:37;;;;;;;11.68;7.18;;;;;;;;;;5002500;28;20105;-81
2022/12/19 14:05:03;;;;;;;10.38;6.35;;;;;;;;;;4989311;28;20470;-80
2022/12/19 14:07:37;;;;;;;12.13;7.10;;;;;;;;;;4989087;28;20038;-81
2022/12/19 14:10:05;;;;;;;11.65;6.47;;;;;;;;;;5000781;28;20031;-81
2022/12/19 14:15:23;;;;;;;11.13;6.95;;;;;;;;;;4990361;28;20030;-80
2022/12/19 14:17:49;;;;;;;11.52;7.57;;;;;;;;;;4985114;28;21038;-81
2022/12/19 14:20:24;;;;;;;9.13;6.32;;;;;;;;;;4988483;28;20496;-81
2022/12/19 14:22:50;;;;;;;11.68;6.18;;;;;;;;;;4992693;28;20137;-81
2022/12/19 14:25:16;;;;;;;23.00;6.80;;;;;;;;;;4996141;28;20061;-80
2022/12/19 14:27:51;;;;;;;8.38;5.63;;;;;;;;;;5002088;28;20422;-79
2022/12/19 14:30:19;;;;;;;19.48;6.07;;;;;;;;;;4979620;28;20057;-80
2022/12/19 14:32:46;;;;;;;17.25;6.63;;;;;;;;;;4992852;28;20066;-80
2022/12/19 14:35:15;;;;;;;8.98;5.90;;;;;;;;;;4997710;28;20033;-80
2022/12/19 14:37:43;;;;;;;10.60;6.32;;;;;;;;;;4977269;28;20019;-82